Terminal Aerodrome Forecast
Issued by NWS Bismarck, ND

Home | Current Version | Previous Version | Graphics & Text | Print | Product List | Glossary On
Versions: 1 2 3 4 5 6 7 8 9 10 11 12 13 14 15 16 17 18 19 20 21 22 23 24
000
FTUS43 KBIS 241700
TAFBIS
TAF
KBIS 241735Z 2418/2518 22018G26KT P6SM VCSH BKN025 OVC040
     FM242100 24018G28KT P6SM SCT025 OVC040
     FM250200 26015KT P6SM OVC035
     FM250600 26015KT P6SM OVC020
      TEMPO 2513/2517 OVC015=

USA.gov is the U.S. government's official web portal to all federal, state and local government web resources and services.